Darstellungsparameter: Aktuell verwendete Einstellungen:
Skalierung der Graphiken ... ?
xyx+y,   Skalierungsfaktor:      Skalierung: Modus: x, Faktor: 1
Darstellungszeitraum ... ?
Vom - - bis: - -   Zeitraum: 25.10.2019 - 27.10.2019
Min/Max/Avg-Anzeige ... ?
Zeige MMA aktuell
Zeige MMA Monat
Zeige MMA alles
Zeige --A aktuell
Zeige --A Monat
Zeige --A alles
Keine MMA-Anzeige
MMA:
Minimum Maximum Average (ber die Originaldaten)
MMA-Basis: 26.03.2019 - 28.04.2019
Quicknavigation für Darstellung... ?
Tage:      1T, 2T, 3T, 5T -1T -2T -3T -5T +1T +2T +3T +5T
Wochen: 1W, 2W, 3W -1W -2W -3W +1W +2W +3W
Monate: 1M, 3M, 6M -1M -3M -6M +1M +3M +6M
Jahre:    1J, 3J, 5J, 10J -1J -3J -5J -10J +1J +3J +5J +10J
Nutze für die Darstellung ... ?
Originaldaten oder Mittelwerte auf ...
Stundenbasis Tagesbasis Wochenbasis
Monatsbasis Jahresbasis      Datenbasis: Original-Daten
Darstellen als:
Statistik (Auto) Statistik J:M      Darstellung:
Zur Graphik,    zurück zur Übersicht aller Sensoren.
 
Tabellarische Datenbersicht: ?
 
Sensor: Nr:Datum:Temp:Abs-Feuchte:Windchill:Wind:
Aussen-T/F 1 25-10-2019 00:00:00 12.8 C 10.42 g/m*3 12.8 C 0 km/h
2 25-10-2019 00:05:00 12.7 C 10.35 g/m*3 12.7 C 0 km/h
3 25-10-2019 00:10:00 12.6 C 10.29 g/m*3 12.6 C 0 km/h
4 25-10-2019 00:15:00 12.6 C 10.29 g/m*3 12.6 C 0 km/h
5 25-10-2019 00:20:00 12.5 C 10.22 g/m*3 12.5 C 0 km/h
6 25-10-2019 00:25:00 12.4 C 10.27 g/m*3 12.4 C 0 km/h
7 25-10-2019 00:30:00 12.3 C 10.21 g/m*3 12.3 C 0 km/h
8 25-10-2019 00:35:00 12.3 C 10.21 g/m*3 12.3 C 0 km/h
9 25-10-2019 00:40:00 12.2 C 10.14 g/m*3 12.2 C 0 km/h
10 25-10-2019 00:45:00 12.2 C 10.14 g/m*3 12.2 C 0 km/h
11 25-10-2019 00:50:00 12.2 C 10.14 g/m*3 12.2 C 0 km/h
12 25-10-2019 00:55:00 12.1 C 10.08 g/m*3 12.1 C 0 km/h
13 25-10-2019 01:00:00 12.1 C 10.19 g/m*3 12.1 C 0 km/h
14 25-10-2019 01:05:00 12.1 C 10.19 g/m*3 12.1 C 0 km/h
15 25-10-2019 01:10:00 12.1 C 10.19 g/m*3 12.1 C 0 km/h
16 25-10-2019 01:15:00 12.1 C 10.19 g/m*3 12.1 C 0 km/h
17 25-10-2019 01:20:00 12 C 10.12 g/m*3 12 C 0 km/h
18 25-10-2019 01:25:00 12 C 10.12 g/m*3 12 C 0 km/h
19 25-10-2019 01:30:00 11.9 C 10.06 g/m*3 11.9 C 0 km/h
20 25-10-2019 01:35:00 11.9 C 10.06 g/m*3 11.9 C 0 km/h
21 25-10-2019 01:40:00 11.9 C 10.06 g/m*3 11.9 C 0 km/h
22 25-10-2019 01:45:00 11.8 C 10 g/m*3 11.8 C 0 km/h
23 25-10-2019 01:50:00 11.8 C 10 g/m*3 11.8 C 0 km/h
24 25-10-2019 01:55:00 11.7 C 9.94 g/m*3 11.7 C 0 km/h
25 25-10-2019 02:00:00 11.6 C 9.87 g/m*3 11.6 C 0 km/h
Sensor: Nr:Datum:Temp:Abs-Feuchte:Windchill:Wind:
Aussen-T/F 26 25-10-2019 02:05:00 11.6 C 9.87 g/m*3 11.6 C 0 km/h
27 25-10-2019 02:10:00 11.5 C 9.81 g/m*3 11.5 C 0 km/h
28 25-10-2019 02:15:00 11.5 C 9.81 g/m*3 11.5 C 0 km/h
29 25-10-2019 02:20:00 11.5 C 9.81 g/m*3 11.5 C 0 km/h
30 25-10-2019 02:25:00 11.4 C 9.75 g/m*3 11.4 C 0 km/h
31 25-10-2019 02:30:00 11.4 C 9.75 g/m*3 11.4 C 0 km/h
32 25-10-2019 02:35:00 11.4 C 9.75 g/m*3 11.4 C 0 km/h
33 25-10-2019 02:40:00 11.3 C 9.69 g/m*3 11.3 C 3.2 km/h
34 25-10-2019 02:45:00 11.4 C 9.85 g/m*3 11.4 C 8.1 km/h
35 25-10-2019 02:50:00 11.6 C 9.98 g/m*3 11.6 C 1.6 km/h
36 25-10-2019 02:55:00 11.7 C 9.94 g/m*3 11.7 C 0 km/h
37 25-10-2019 03:00:00 11.7 C 9.94 g/m*3 11.7 C 6.4 km/h
38 25-10-2019 03:05:00 12 C 10.23 g/m*3 12 C 9.7 km/h
39 25-10-2019 03:10:00 12.2 C 10.25 g/m*3 12.2 C 0 km/h
40 25-10-2019 03:15:00 12.3 C 10.21 g/m*3 12.3 C 1.6 km/h
41 25-10-2019 03:20:00 12.3 C 10.21 g/m*3 12.3 C 0 km/h
42 25-10-2019 03:25:00 12.3 C 10.21 g/m*3 12.3 C 4.8 km/h
43 25-10-2019 03:30:00 12.4 C 10.16 g/m*3 12.4 C 0 km/h
44 25-10-2019 03:35:00 12.4 C 10.16 g/m*3 12.4 C 0 km/h
45 25-10-2019 03:40:00 12.4 C 10.16 g/m*3 12.4 C 0 km/h
46 25-10-2019 03:45:00 12.6 C 10.29 g/m*3 12.6 C 0 km/h
47 25-10-2019 03:50:00 12.7 C 10.35 g/m*3 12.7 C 0 km/h
48 25-10-2019 03:55:00 12.8 C 10.42 g/m*3 12.8 C 0 km/h
49 25-10-2019 04:00:00 12.9 C 10.48 g/m*3 12.9 C 0 km/h
50 25-10-2019 04:05:00 12.8 C 10.3 g/m*3 12.8 C 0 km/h
Sensor: Nr:Datum:Temp:Abs-Feuchte:Windchill:Wind:
Aussen-T/F 51 25-10-2019 04:10:00 12.8 C 10.3 g/m*3 12.8 C 0 km/h
52 25-10-2019 04:15:00 12.8 C 10.3 g/m*3 12.8 C 1.6 km/h
53 25-10-2019 04:20:00 12.8 C 10.3 g/m*3 12.8 C 0 km/h
54 25-10-2019 04:25:00 12.8 C 10.3 g/m*3 12.8 C 4.8 km/h
55 25-10-2019 04:30:00 12.8 C 10.3 g/m*3 12.8 C 1.6 km/h
56 25-10-2019 04:35:00 12.9 C 10.37 g/m*3 12.9 C 6.4 km/h
57 25-10-2019 04:40:00 13 C 10.43 g/m*3 13 C 3.2 km/h
58 25-10-2019 04:45:00 13.1 C 10.38 g/m*3 13.1 C 3.2 km/h
59 25-10-2019 04:50:00 13 C 10.21 g/m*3 13 C 0 km/h
60 25-10-2019 04:55:00 12.9 C 10.14 g/m*3 12.9 C 0 km/h
61 25-10-2019 05:00:00 12.8 C 10.08 g/m*3 12.8 C 0 km/h
62 25-10-2019 05:05:00 12.7 C 10.02 g/m*3 12.7 C 0 km/h
63 25-10-2019 05:10:00 12.6 C 10.07 g/m*3 12.6 C 1.6 km/h
64 25-10-2019 05:15:00 12.6 C 10.07 g/m*3 12.6 C 1.6 km/h
65 25-10-2019 05:20:00 12.6 C 10.07 g/m*3 12.6 C 1.6 km/h
66 25-10-2019 05:25:00 12.6 C 10.07 g/m*3 12.6 C 11.3 km/h
67 25-10-2019 05:30:00 12.7 C 10.13 g/m*3 12.7 C 11.3 km/h
68 25-10-2019 05:35:00 12.7 C 10.13 g/m*3 12.7 C 3.2 km/h
69 25-10-2019 05:40:00 12.7 C 10.13 g/m*3 12.7 C 1.6 km/h
70 25-10-2019 05:45:00 12.7 C 10.13 g/m*3 12.7 C 1.6 km/h
71 25-10-2019 05:50:00 12.6 C 10.07 g/m*3 12.6 C 1.6 km/h
72 25-10-2019 05:55:00 12.6 C 10.07 g/m*3 12.6 C 0 km/h
73 25-10-2019 06:00:00 12.6 C 10.07 g/m*3 12.6 C 0 km/h
74 25-10-2019 06:05:00 12.5 C 10 g/m*3 12.5 C 0 km/h
75 25-10-2019 06:10:00 12.4 C 9.94 g/m*3 12.4 C 1.6 km/h
Sensor: Nr:Datum:Temp:Abs-Feuchte:Windchill:Wind:
Aussen-T/F 76 25-10-2019 06:15:00 12.3 C 9.99 g/m*3 12.3 C 0 km/h
77 25-10-2019 06:20:00 12.4 C 10.05 g/m*3 12.4 C 1.6 km/h
78 25-10-2019 06:25:00 12.4 C 10.16 g/m*3 12.4 C 1.6 km/h
79 25-10-2019 06:30:00 12.5 C 10.22 g/m*3 12.5 C 1.6 km/h
80 25-10-2019 06:35:00 12.6 C 10.29 g/m*3 12.6 C 3.2 km/h
81 25-10-2019 06:40:00 12.8 C 10.3 g/m*3 12.8 C 6.4 km/h
82 25-10-2019 06:45:00 12.9 C 10.37 g/m*3 12.9 C 4.8 km/h
83 25-10-2019 06:50:00 13.1 C 10.5 g/m*3 13.1 C 1.6 km/h
84 25-10-2019 06:55:00 13.1 C 10.5 g/m*3 13.1 C 0 km/h
85 25-10-2019 07:00:00 13.2 C 10.45 g/m*3 13.2 C 6.4 km/h
86 25-10-2019 07:05:00 13.3 C 10.51 g/m*3 13.3 C 1.6 km/h
87 25-10-2019 07:10:00 13.3 C 10.51 g/m*3 13.3 C 3.2 km/h
88 25-10-2019 07:15:00 13.3 C 10.4 g/m*3 13.3 C 0 km/h
89 25-10-2019 07:20:00 13.2 C 10.33 g/m*3 13.2 C 0 km/h
90 25-10-2019 07:25:00 13.2 C 10.33 g/m*3 13.2 C 0 km/h
91 25-10-2019 07:30:00 13.1 C 10.27 g/m*3 13.1 C 1.6 km/h
92 25-10-2019 07:35:00 13.1 C 10.38 g/m*3 13.1 C 8.1 km/h
93 25-10-2019 07:40:00 13.1 C 10.38 g/m*3 13.1 C 6.4 km/h
94 25-10-2019 07:45:00 13.1 C 10.38 g/m*3 13.1 C 0 km/h
95 25-10-2019 07:50:00 13.1 C 10.38 g/m*3 13.1 C 0 km/h
96 25-10-2019 07:55:00 13.1 C 10.38 g/m*3 13.1 C 1.6 km/h
97 25-10-2019 08:00:00 13 C 10.32 g/m*3 13 C 1.6 km/h
98 25-10-2019 08:05:00 12.9 C 10.26 g/m*3 12.9 C 3.2 km/h
99 25-10-2019 08:10:00 12.8 C 10.19 g/m*3 12.8 C 6.4 km/h
100 25-10-2019 08:15:00 12.8 C 10.19 g/m*3 12.8 C 3.2 km/h
Sensor: Nr:Datum:Temp:Abs-Feuchte:Windchill:Wind:
Aussen-T/F 101 25-10-2019 08:20:00 12.8 C 10.19 g/m*3 12.8 C 0 km/h
102 25-10-2019 08:25:00 12.7 C 10.13 g/m*3 12.7 C 0 km/h
103 25-10-2019 08:30:00 12.6 C 10.18 g/m*3 12.6 C 1.6 km/h
104 25-10-2019 08:35:00 12.6 C 10.18 g/m*3 12.6 C 1.6 km/h
105 25-10-2019 08:40:00 12.5 C 10.11 g/m*3 12.5 C 0 km/h
106 25-10-2019 08:45:00 12.5 C 10.11 g/m*3 12.5 C 0 km/h
107 25-10-2019 08:50:00 12.5 C 10.22 g/m*3 12.5 C 0 km/h
108 25-10-2019 08:55:00 12.5 C 10.22 g/m*3 12.5 C 0 km/h
109 25-10-2019 09:00:00 12.6 C 10.29 g/m*3 12.6 C 0 km/h
110 25-10-2019 09:05:00 12.6 C 10.29 g/m*3 12.6 C 0 km/h
111 25-10-2019 09:10:00 12.6 C 10.29 g/m*3 12.6 C 0 km/h
112 25-10-2019 09:15:00 12.7 C 10.35 g/m*3 12.7 C 3.2 km/h
113 25-10-2019 09:20:00 12.8 C 10.53 g/m*3 12.8 C 0 km/h
114 25-10-2019 09:25:00 12.9 C 10.59 g/m*3 12.9 C 0 km/h
115 25-10-2019 09:30:00 12.9 C 10.59 g/m*3 12.9 C 0 km/h
116 25-10-2019 09:35:00 13.1 C 10.61 g/m*3 13.1 C 0 km/h
117 25-10-2019 09:40:00 13.1 C 10.61 g/m*3 13.1 C 6.4 km/h
118 25-10-2019 09:45:00 13.2 C 10.56 g/m*3 13.2 C 6.4 km/h
119 25-10-2019 09:50:00 13.3 C 10.63 g/m*3 13.3 C 4.8 km/h
120 25-10-2019 09:55:00 13.4 C 10.69 g/m*3 13.4 C 1.6 km/h
121 25-10-2019 10:00:00 13.4 C 10.69 g/m*3 13.4 C 1.6 km/h
122 25-10-2019 10:05:00 13.5 C 10.76 g/m*3 13.5 C 0 km/h
123 25-10-2019 10:10:00 13.5 C 10.76 g/m*3 13.5 C 3.2 km/h
124 25-10-2019 10:15:00 13.4 C 10.58 g/m*3 13.4 C 3.2 km/h
125 25-10-2019 10:20:00 13.5 C 10.53 g/m*3 13.5 C 6.4 km/h
Sensor: Nr:Datum:Temp:Abs-Feuchte:Windchill:Wind:
Aussen-T/F 126 25-10-2019 10:25:00 13.6 C 10.59 g/m*3 13.6 C 3.2 km/h
127 25-10-2019 10:30:00 13.7 C 10.54 g/m*3 13.7 C 6.4 km/h
128 25-10-2019 10:35:00 13.8 C 10.6 g/m*3 13.8 C 8.1 km/h
129 25-10-2019 10:40:00 13.9 C 10.55 g/m*3 13.9 C 9.7 km/h
130 25-10-2019 10:45:00 14.1 C 10.56 g/m*3 14.1 C 9.7 km/h
131 25-10-2019 10:50:00 14.3 C 10.44 g/m*3 14.3 C 12.9 km/h
132 25-10-2019 10:55:00 14.6 C 10.51 g/m*3 14.6 C 11.3 km/h
133 25-10-2019 11:00:00 14.7 C 10.58 g/m*3 14.7 C 11.3 km/h
134 25-10-2019 11:05:00 14.7 C 10.45 g/m*3 14.7 C 9.7 km/h
135 25-10-2019 11:10:00 14.8 C 10.51 g/m*3 14.8 C 8.1 km/h
136 25-10-2019 11:15:00 14.8 C 10.51 g/m*3 14.8 C 11.3 km/h
137 25-10-2019 11:20:00 14.9 C 10.58 g/m*3 14.9 C 8.1 km/h
138 25-10-2019 11:25:00 14.9 C 10.45 g/m*3 14.9 C 11.3 km/h
139 25-10-2019 11:30:00 14.9 C 10.45 g/m*3 14.9 C 11.3 km/h
140 25-10-2019 11:35:00 15 C 10.51 g/m*3 15 C 16.1 km/h
141 25-10-2019 11:40:00 15 C 10.51 g/m*3 15 C 6.4 km/h
142 25-10-2019 11:45:00 15 C 10.51 g/m*3 15 C 9.7 km/h
143 25-10-2019 11:50:00 15.1 C 10.58 g/m*3 15.1 C 6.4 km/h
144 25-10-2019 11:55:00 15.1 C 10.58 g/m*3 15.1 C 3.2 km/h
145 25-10-2019 12:00:00 15.1 C 10.45 g/m*3 15.1 C 8.1 km/h
146 25-10-2019 12:05:00 15 C 10.26 g/m*3 15 C 9.7 km/h
147 25-10-2019 12:10:00 15.1 C 10.45 g/m*3 15.1 C 9.7 km/h
148 25-10-2019 12:15:00 15.1 C 10.32 g/m*3 15.1 C 9.7 km/h
149 25-10-2019 12:20:00 15.2 C 10.38 g/m*3 15.2 C 12.9 km/h
150 25-10-2019 12:25:00 15.2 C 10.25 g/m*3 15.2 C 6.4 km/h
Sensor: Nr:Datum:Temp:Abs-Feuchte:Windchill:Wind:
Aussen-T/F 151 25-10-2019 12:30:00 15.2 C 10.25 g/m*3 15.2 C 12.9 km/h
152 25-10-2019 12:35:00 15.3 C 10.32 g/m*3 15.3 C 11.3 km/h
153 25-10-2019 12:40:00 15.4 C 10.25 g/m*3 15.4 C 12.9 km/h
154 25-10-2019 12:45:00 15.4 C 10.25 g/m*3 15.4 C 8.1 km/h
155 25-10-2019 12:50:00 15.6 C 10.51 g/m*3 15.6 C 9.7 km/h
156 25-10-2019 12:55:00 15.7 C 10.44 g/m*3 15.7 C 8.1 km/h
157 25-10-2019 13:00:00 15.7 C 10.17 g/m*3 15.7 C 8.1 km/h
158 25-10-2019 13:05:00 15.9 C 10.56 g/m*3 15.9 C 4.8 km/h
159 25-10-2019 13:10:00 16.1 C 10.28 g/m*3 16.1 C 9.7 km/h
160 25-10-2019 13:15:00 16.2 C 10.2 g/m*3 16.2 C 9.7 km/h
161 25-10-2019 13:20:00 16.2 C 10.34 g/m*3 16.2 C 9.7 km/h
162 25-10-2019 13:25:00 16.3 C 10.41 g/m*3 16.3 C 6.4 km/h
163 25-10-2019 13:30:00 16.4 C 10.19 g/m*3 16.4 C 8.1 km/h
164 25-10-2019 13:35:00 16.5 C 10.25 g/m*3 16.5 C 11.3 km/h
165 25-10-2019 13:40:00 16.4 C 9.77 g/m*3 16.4 C 16.1 km/h
166 25-10-2019 13:45:00 16.3 C 9.85 g/m*3 16.3 C 11.3 km/h
167 25-10-2019 13:50:00 16.2 C 9.93 g/m*3 16.2 C 6.4 km/h
168 25-10-2019 13:55:00 16.1 C 10.01 g/m*3 16.1 C 9.7 km/h
169 25-10-2019 14:00:00 16 C 9.95 g/m*3 16 C 8.1 km/h
170 25-10-2019 14:05:00 16 C 9.95 g/m*3 16 C 9.7 km/h
171 25-10-2019 14:10:00 16.1 C 10.01 g/m*3 16.1 C 11.3 km/h
172 25-10-2019 14:15:00 16.2 C 10.2 g/m*3 16.2 C 6.4 km/h
173 25-10-2019 14:20:00 16.2 C 10.34 g/m*3 16.2 C 8.1 km/h
174 25-10-2019 14:25:00 16.3 C 10.54 g/m*3 16.3 C 4.8 km/h
175 25-10-2019 14:30:00 16.3 C 10.41 g/m*3 16.3 C 4.8 km/h
Sensor: Nr:Datum:Temp:Abs-Feuchte:Windchill:Wind:
Aussen-T/F 176 25-10-2019 14:35:00 16.4 C 10.33 g/m*3 16.4 C 6.4 km/h
177 25-10-2019 14:40:00 16.5 C 10.39 g/m*3 16.5 C 8.1 km/h
178 25-10-2019 14:45:00 16.5 C 10.39 g/m*3 16.5 C 8.1 km/h
179 25-10-2019 14:50:00 16.5 C 10.25 g/m*3 16.5 C 11.3 km/h
180 25-10-2019 14:55:00 16.5 C 10.11 g/m*3 16.5 C 3.2 km/h
181 25-10-2019 15:00:00 16.5 C 10.11 g/m*3 16.5 C 6.4 km/h
182 25-10-2019 15:05:00 16.6 C 10.03 g/m*3 16.6 C 11.3 km/h
183 25-10-2019 15:10:00 16.6 C 10.03 g/m*3 16.6 C 11.3 km/h
184 25-10-2019 15:15:00 16.5 C 9.97 g/m*3 16.5 C 8.1 km/h
185 25-10-2019 15:20:00 16.4 C 9.77 g/m*3 16.4 C 9.7 km/h
186 25-10-2019 15:25:00 16.4 C 9.77 g/m*3 16.4 C 11.3 km/h
187 25-10-2019 15:30:00 16.4 C 9.77 g/m*3 16.4 C 9.7 km/h
188 25-10-2019 15:35:00 16.4 C 10.05 g/m*3 16.4 C 4.8 km/h
189 25-10-2019 15:40:00 16.4 C 9.77 g/m*3 16.4 C 8.1 km/h
190 25-10-2019 15:45:00 16.4 C 9.63 g/m*3 16.4 C 12.9 km/h
191 25-10-2019 15:50:00 16.3 C 9.71 g/m*3 16.3 C 8.1 km/h
192 25-10-2019 15:55:00 16.3 C 9.71 g/m*3 16.3 C 14.5 km/h
193 25-10-2019 16:00:00 16.3 C 9.71 g/m*3 16.3 C 6.4 km/h
194 25-10-2019 16:05:00 16.3 C 9.71 g/m*3 16.3 C 9.7 km/h
195 25-10-2019 16:10:00 16.3 C 10.13 g/m*3 16.3 C 8.1 km/h
196 25-10-2019 16:15:00 16.2 C 9.79 g/m*3 16.2 C 9.7 km/h
197 25-10-2019 16:20:00 16.2 C 10.2 g/m*3 16.2 C 8.1 km/h
198 25-10-2019 16:25:00 16.1 C 9.87 g/m*3 16.1 C 11.3 km/h
199 25-10-2019 16:30:00 16.1 C 10.14 g/m*3 16.1 C 4.8 km/h
200 25-10-2019 16:35:00 16.1 C 10.01 g/m*3 16.1 C 4.8 km/h
Sensor: Nr:Datum:Temp:Abs-Feuchte:Windchill:Wind:
Aussen-T/F 201 25-10-2019 16:40:00 15.9 C 10.16 g/m*3 15.9 C 6.4 km/h
202 25-10-2019 16:45:00 15.8 C 10.23 g/m*3 15.8 C 6.4 km/h
203 25-10-2019 16:50:00 15.7 C 9.9 g/m*3 15.7 C 3.2 km/h
204 25-10-2019 16:55:00 15.7 C 10.17 g/m*3 15.7 C 0 km/h
205 25-10-2019 17:00:00 15.5 C 10.31 g/m*3 15.5 C 0 km/h
206 25-10-2019 17:05:00 15.3 C 10.32 g/m*3 15.3 C 0 km/h
207 25-10-2019 17:10:00 15.1 C 10.32 g/m*3 15.1 C 0 km/h
208 25-10-2019 17:15:00 14.9 C 10.2 g/m*3 14.9 C 1.6 km/h
209 25-10-2019 17:20:00 14.7 C 10.2 g/m*3 14.7 C 0 km/h
210 25-10-2019 17:25:00 14.6 C 10.26 g/m*3 14.6 C 0 km/h
211 25-10-2019 17:30:00 14.4 C 10.14 g/m*3 14.4 C 3.2 km/h
212 25-10-2019 17:35:00 14.3 C 10.2 g/m*3 14.3 C 1.6 km/h
213 25-10-2019 17:40:00 14.2 C 10.14 g/m*3 14.2 C 0 km/h
214 25-10-2019 17:45:00 14.1 C 10.19 g/m*3 14.1 C 1.6 km/h
215 25-10-2019 17:50:00 13.9 C 10.07 g/m*3 13.9 C 0 km/h
216 25-10-2019 17:55:00 13.8 C 10.13 g/m*3 13.8 C 0 km/h
217 25-10-2019 18:00:00 13.7 C 10.07 g/m*3 13.7 C 0 km/h
218 25-10-2019 18:05:00 13.6 C 10 g/m*3 13.6 C 0 km/h
219 25-10-2019 18:10:00 13.4 C 10 g/m*3 13.4 C 0 km/h
220 25-10-2019 18:15:00 13.2 C 9.87 g/m*3 13.2 C 3.2 km/h
221 25-10-2019 18:20:00 13.1 C 9.81 g/m*3 13.1 C 1.6 km/h
222 25-10-2019 18:25:00 13 C 9.87 g/m*3 13 C 1.6 km/h
223 25-10-2019 18:30:00 12.9 C 9.81 g/m*3 12.9 C 1.6 km/h
224 25-10-2019 18:35:00 12.8 C 9.63 g/m*3 12.8 C 0 km/h
225 25-10-2019 18:40:00 12.7 C 9.68 g/m*3 12.7 C 0 km/h
Sensor: Nr:Datum:Temp:Abs-Feuchte:Windchill:Wind:
Aussen-T/F 226 25-10-2019 18:45:00 12.7 C 9.68 g/m*3 12.7 C 1.6 km/h
227 25-10-2019 18:50:00 12.6 C 9.62 g/m*3 12.6 C 0 km/h
228 25-10-2019 18:55:00 12.5 C 9.68 g/m*3 12.5 C 0 km/h
229 25-10-2019 19:00:00 12.4 C 9.62 g/m*3 12.4 C 0 km/h
230 25-10-2019 19:05:00 12.3 C 9.66 g/m*3 12.3 C 0 km/h
231 25-10-2019 19:10:00 12.2 C 9.6 g/m*3 12.2 C 0 km/h
232 25-10-2019 19:15:00 12.2 C 9.6 g/m*3 12.2 C 0 km/h
233 25-10-2019 19:20:00 12.1 C 9.65 g/m*3 12.1 C 0 km/h
234 25-10-2019 19:25:00 12 C 9.59 g/m*3 12 C 0 km/h
235 25-10-2019 19:30:00 11.9 C 9.53 g/m*3 11.9 C 0 km/h
236 25-10-2019 19:35:00 11.8 C 9.47 g/m*3 11.8 C 0 km/h
237 25-10-2019 19:40:00 11.8 C 9.58 g/m*3 11.8 C 1.6 km/h
238 25-10-2019 19:45:00 11.8 C 9.58 g/m*3 11.8 C 0 km/h
239 25-10-2019 19:50:00 11.7 C 9.52 g/m*3 11.7 C 0 km/h
240 25-10-2019 19:55:00 11.7 C 9.52 g/m*3 11.7 C 0 km/h
241 25-10-2019 20:00:00 11.6 C 9.46 g/m*3 11.6 C 0 km/h
242 25-10-2019 20:05:00 11.6 C 9.46 g/m*3 11.6 C 0 km/h
243 25-10-2019 20:10:00 11.6 C 9.56 g/m*3 11.6 C 0 km/h
244 25-10-2019 20:15:00 11.6 C 9.46 g/m*3 11.6 C 0 km/h
245 25-10-2019 20:20:00 11.6 C 9.46 g/m*3 11.6 C 0 km/h
246 25-10-2019 20:25:00 11.5 C 9.4 g/m*3 11.5 C 0 km/h
247 25-10-2019 20:30:00 11.4 C 9.34 g/m*3 11.4 C 0 km/h
248 25-10-2019 20:35:00 11.3 C 9.28 g/m*3 11.3 C 0 km/h
249 25-10-2019 20:40:00 11.3 C 9.28 g/m*3 11.3 C 0 km/h
250 25-10-2019 20:45:00 11.3 C 9.38 g/m*3 11.3 C 0 km/h
Sensor: Nr:Datum:Temp:Abs-Feuchte:Windchill:Wind:
Aussen-T/F 251 25-10-2019 20:50:00 11.3 C 9.38 g/m*3 11.3 C 0 km/h
252 25-10-2019 20:55:00 11.3 C 9.38 g/m*3 11.3 C 0 km/h
253 25-10-2019 21:00:00 11.3 C 9.38 g/m*3 11.3 C 0 km/h
254 25-10-2019 21:05:00 11.3 C 9.38 g/m*3 11.3 C 0 km/h
255 25-10-2019 21:10:00 11.2 C 9.33 g/m*3 11.2 C 0 km/h
256 25-10-2019 21:15:00 11.2 C 9.33 g/m*3 11.2 C 0 km/h
257 25-10-2019 21:20:00 11.1 C 9.27 g/m*3 11.1 C 0 km/h
258 25-10-2019 21:25:00 11.1 C 9.27 g/m*3 11.1 C 0 km/h
259 25-10-2019 21:30:00 10.9 C 9.15 g/m*3 10.9 C 0 km/h
260 25-10-2019 21:35:00 10.9 C 9.15 g/m*3 10.9 C 0 km/h
261 25-10-2019 21:40:00 10.9 C 9.25 g/m*3 10.9 C 0 km/h
262 25-10-2019 21:45:00 10.9 C 9.25 g/m*3 10.9 C 0 km/h
263 25-10-2019 21:50:00 10.8 C 9.19 g/m*3 10.8 C 0 km/h
264 25-10-2019 21:55:00 10.7 C 9.13 g/m*3 10.7 C 0 km/h
265 25-10-2019 22:00:00 10.8 C 9.29 g/m*3 10.8 C 0 km/h
266 25-10-2019 22:05:00 10.9 C 9.35 g/m*3 10.9 C 0 km/h
267 25-10-2019 22:10:00 11.1 C 9.47 g/m*3 11.1 C 1.6 km/h
268 25-10-2019 22:15:00 11.2 C 9.53 g/m*3 11.2 C 0 km/h
269 25-10-2019 22:20:00 11.3 C 9.59 g/m*3 11.3 C 0 km/h
270 25-10-2019 22:25:00 11.3 C 9.59 g/m*3 11.3 C 0 km/h
271 25-10-2019 22:30:00 11.3 C 9.59 g/m*3 11.3 C 1.6 km/h
272 25-10-2019 22:35:00 11.4 C 9.65 g/m*3 11.4 C 0 km/h
273 25-10-2019 22:40:00 11.4 C 9.65 g/m*3 11.4 C 0 km/h
274 25-10-2019 22:45:00 11.6 C 9.67 g/m*3 11.6 C 3.2 km/h
275 25-10-2019 22:50:00 11.6 C 9.67 g/m*3 11.6 C 0 km/h
Sensor: Nr:Datum:Temp:Abs-Feuchte:Windchill:Wind:
Aussen-T/F 276 25-10-2019 22:55:00 11.7 C 9.73 g/m*3 11.7 C 0 km/h
277 25-10-2019 23:00:00 11.8 C 9.79 g/m*3 11.8 C 0 km/h
278 25-10-2019 23:05:00 11.9 C 9.85 g/m*3 11.9 C 0 km/h
279 25-10-2019 23:10:00 12.1 C 9.97 g/m*3 12.1 C 3.2 km/h
280 25-10-2019 23:15:00 12.2 C 10.04 g/m*3 12.2 C 1.6 km/h
281 25-10-2019 23:20:00 12.3 C 10.1 g/m*3 12.3 C 0 km/h
282 25-10-2019 23:25:00 12.4 C 10.16 g/m*3 12.4 C 0 km/h
283 25-10-2019 23:30:00 12.6 C 10.29 g/m*3 12.6 C 4.8 km/h
284 25-10-2019 23:35:00 12.7 C 10.24 g/m*3 12.7 C 0 km/h
285 25-10-2019 23:40:00 12.8 C 10.19 g/m*3 12.8 C 0 km/h
286 25-10-2019 23:45:00 12.8 C 10.19 g/m*3 12.8 C 6.4 km/h
287 25-10-2019 23:50:00 12.9 C 10.26 g/m*3 12.9 C 1.6 km/h
288 25-10-2019 23:55:00 13.1 C 10.38 g/m*3 13.1 C 1.6 km/h
289 26-10-2019 00:00:00 13.1 C 10.27 g/m*3 13.1 C 0 km/h
290 26-10-2019 00:05:00 13.2 C 10.45 g/m*3 13.2 C 1.6 km/h
291 26-10-2019 00:10:00 13.2 C 10.33 g/m*3 13.2 C 0 km/h
292 26-10-2019 00:15:00 13.3 C 10.4 g/m*3 13.3 C 1.6 km/h
293 26-10-2019 00:20:00 13.4 C 10.46 g/m*3 13.4 C 3.2 km/h
294 26-10-2019 00:25:00 13.5 C 10.41 g/m*3 13.5 C 3.2 km/h
295 26-10-2019 00:30:00 13.6 C 10.47 g/m*3 13.6 C 3.2 km/h
296 26-10-2019 00:35:00 13.7 C 10.42 g/m*3 13.7 C 1.6 km/h
297 26-10-2019 00:40:00 13.7 C 10.54 g/m*3 13.7 C 0 km/h
298 26-10-2019 00:45:00 13.7 C 10.42 g/m*3 13.7 C 3.2 km/h
299 26-10-2019 00:50:00 13.7 C 10.42 g/m*3 13.7 C 0 km/h
300 26-10-2019 00:55:00 13.7 C 10.42 g/m*3 13.7 C 0 km/h
Sensor: Nr:Datum:Temp:Abs-Feuchte:Windchill:Wind:
Aussen-T/F 301 26-10-2019 01:00:00 13.7 C 10.42 g/m*3 13.7 C 3.2 km/h
302 26-10-2019 01:05:00 13.7 C 10.42 g/m*3 13.7 C 1.6 km/h
303 26-10-2019 01:10:00 13.6 C 10.36 g/m*3 13.6 C 0 km/h
304 26-10-2019 01:15:00 13.6 C 10.36 g/m*3 13.6 C 1.6 km/h
305 26-10-2019 01:20:00 13.5 C 10.29 g/m*3 13.5 C 1.6 km/h
306 26-10-2019 01:25:00 13.4 C 10.23 g/m*3 13.4 C 0 km/h
307 26-10-2019 01:30:00 13.4 C 10.35 g/m*3 13.4 C 1.6 km/h
308 26-10-2019 01:35:00 13.6 C 10.36 g/m*3 13.6 C 3.2 km/h
309 26-10-2019 01:40:00 13.8 C 10.48 g/m*3 13.8 C 0 km/h
310 26-10-2019 01:45:00 13.8 C 10.48 g/m*3 13.8 C 1.6 km/h
311 26-10-2019 01:50:00 13.9 C 10.55 g/m*3 13.9 C 0 km/h
312 26-10-2019 01:55:00 14.1 C 10.68 g/m*3 14.1 C 0 km/h
313 26-10-2019 02:00:00 14.1 C 10.56 g/m*3 14.1 C 4.8 km/h
314 26-10-2019 02:05:00 14.2 C 10.5 g/m*3 14.2 C 4.8 km/h
315 26-10-2019 02:10:00 14.1 C 10.44 g/m*3 14.1 C 0 km/h
316 26-10-2019 02:15:00 13.9 C 10.31 g/m*3 13.9 C 0 km/h
317 26-10-2019 02:20:00 13.8 C 10.37 g/m*3 13.8 C 1.6 km/h
318 26-10-2019 02:25:00 13.6 C 10.24 g/m*3 13.6 C 0 km/h
319 26-10-2019 02:30:00 13.4 C 10.23 g/m*3 13.4 C 1.6 km/h
320 26-10-2019 02:35:00 13.3 C 10.28 g/m*3 13.3 C 0 km/h
321 26-10-2019 02:40:00 13.2 C 10.22 g/m*3 13.2 C 0 km/h
322 26-10-2019 02:45:00 13.1 C 10.16 g/m*3 13.1 C 0 km/h
323 26-10-2019 02:50:00 12.9 C 10.03 g/m*3 12.9 C 0 km/h
324 26-10-2019 02:55:00 12.8 C 10.08 g/m*3 12.8 C 0 km/h
325 26-10-2019 03:00:00 12.8 C 10.08 g/m*3 12.8 C 0 km/h
Sensor: Nr:Datum:Temp:Abs-Feuchte:Windchill:Wind:
Aussen-T/F 326 26-10-2019 03:05:00 12.7 C 10.02 g/m*3 12.7 C 0 km/h
327 26-10-2019 03:10:00 12.6 C 10.07 g/m*3 12.6 C 1.6 km/h
328 26-10-2019 03:15:00 12.5 C 10 g/m*3 12.5 C 0 km/h
329 26-10-2019 03:20:00 12.4 C 9.94 g/m*3 12.4 C 0 km/h
330 26-10-2019 03:25:00 12.3 C 9.88 g/m*3 12.3 C 4.8 km/h
331 26-10-2019 03:30:00 12.3 C 9.88 g/m*3 12.3 C 0 km/h
332 26-10-2019 03:35:00 12.2 C 9.82 g/m*3 12.2 C 0 km/h
333 26-10-2019 03:40:00 12 C 9.8 g/m*3 12 C 0 km/h
334 26-10-2019 03:45:00 11.9 C 9.74 g/m*3 11.9 C 0 km/h
335 26-10-2019 03:50:00 11.8 C 9.68 g/m*3 11.8 C 0 km/h
336 26-10-2019 03:55:00 11.7 C 9.62 g/m*3 11.7 C 0 km/h
337 26-10-2019 04:00:00 11.7 C 9.73 g/m*3 11.7 C 0 km/h
338 26-10-2019 04:05:00 11.6 C 9.67 g/m*3 11.6 C 0 km/h
339 26-10-2019 04:10:00 11.6 C 9.67 g/m*3 11.6 C 0 km/h
340 26-10-2019 04:15:00 11.5 C 9.61 g/m*3 11.5 C 0 km/h
341 26-10-2019 04:20:00 11.4 C 9.55 g/m*3 11.4 C 0 km/h
342 26-10-2019 04:25:00 11.3 C 9.49 g/m*3 11.3 C 0 km/h
343 26-10-2019 04:30:00 11.3 C 9.59 g/m*3 11.3 C 0 km/h
344 26-10-2019 04:35:00 11.4 C 9.65 g/m*3 11.4 C 0 km/h
345 26-10-2019 04:40:00 11.7 C 9.94 g/m*3 11.7 C 9.7 km/h
346 26-10-2019 04:45:00 11.8 C 10 g/m*3 11.8 C 6.4 km/h
347 26-10-2019 04:50:00 11.9 C 9.96 g/m*3 11.9 C 3.2 km/h
348 26-10-2019 04:55:00 11.9 C 9.96 g/m*3 11.9 C 1.6 km/h
349 26-10-2019 05:00:00 12.1 C 10.08 g/m*3 12.1 C 1.6 km/h
350 26-10-2019 05:05:00 12.2 C 10.14 g/m*3 12.2 C 8.1 km/h
Sensor: Nr:Datum:Temp:Abs-Feuchte:Windchill:Wind:
Aussen-T/F 351 26-10-2019 05:10:00 12.2 C 10.14 g/m*3 12.2 C 8.1 km/h
352 26-10-2019 05:15:00 12.3 C 10.21 g/m*3 12.3 C 3.2 km/h
353 26-10-2019 05:20:00 12.3 C 10.21 g/m*3 12.3 C 1.6 km/h
354 26-10-2019 05:25:00 12.4 C 10.16 g/m*3 12.4 C 3.2 km/h
355 26-10-2019 05:30:00 12.4 C 10.16 g/m*3 12.4 C 1.6 km/h
356 26-10-2019 05:35:00 12.4 C 10.16 g/m*3 12.4 C 0 km/h
357 26-10-2019 05:40:00 12.4 C 10.05 g/m*3 12.4 C 0 km/h
358 26-10-2019 05:45:00 12.3 C 9.99 g/m*3 12.3 C 0 km/h
359 26-10-2019 05:50:00 12.3 C 9.99 g/m*3 12.3 C 0 km/h
360 26-10-2019 05:55:00 12.2 C 9.93 g/m*3 12.2 C 0 km/h
361 26-10-2019 06:00:00 12.2 C 9.93 g/m*3 12.2 C 0 km/h
362 26-10-2019 06:05:00 12.1 C 9.97 g/m*3 12.1 C 1.6 km/h
363 26-10-2019 06:10:00 12.1 C 9.97 g/m*3 12.1 C 0 km/h
364 26-10-2019 06:15:00 11.9 C 9.85 g/m*3 11.9 C 0 km/h
365 26-10-2019 06:20:00 11.9 C 9.85 g/m*3 11.9 C 0 km/h
366 26-10-2019 06:25:00 11.8 C 9.79 g/m*3 11.8 C 0 km/h
367 26-10-2019 06:30:00 11.8 C 9.79 g/m*3 11.8 C 0 km/h
368 26-10-2019 06:35:00 11.8 C 9.89 g/m*3 11.8 C 0 km/h
369 26-10-2019 06:40:00 11.7 C 9.83 g/m*3 11.7 C 0 km/h
370 26-10-2019 06:45:00 11.7 C 9.83 g/m*3 11.7 C 0 km/h
371 26-10-2019 06:50:00 11.7 C 9.83 g/m*3 11.7 C 0 km/h
372 26-10-2019 06:55:00 11.7 C 9.83 g/m*3 11.7 C 0 km/h
373 26-10-2019 07:00:00 11.7 C 9.83 g/m*3 11.7 C 0 km/h
374 26-10-2019 07:05:00 11.6 C 9.77 g/m*3 11.6 C 0 km/h
375 26-10-2019 07:10:00 11.5 C 9.71 g/m*3 11.5 C 0 km/h
Sensor: Nr:Datum:Temp:Abs-Feuchte:Windchill:Wind:
Aussen-T/F 376 26-10-2019 07:15:00 11.4 C 9.65 g/m*3 11.4 C 0 km/h
377 26-10-2019 07:20:00 11.3 C 9.59 g/m*3 11.3 C 0 km/h
378 26-10-2019 07:25:00 11.2 C 9.53 g/m*3 11.2 C 0 km/h
379 26-10-2019 07:30:00 11.1 C 9.47 g/m*3 11.1 C 0 km/h
380 26-10-2019 07:35:00 10.9 C 9.35 g/m*3 10.9 C 0 km/h
381 26-10-2019 07:40:00 10.8 C 9.29 g/m*3 10.8 C 0 km/h
382 26-10-2019 07:45:00 10.7 C 9.23 g/m*3 10.7 C 0 km/h
383 26-10-2019 07:50:00 10.6 C 9.17 g/m*3 10.6 C 0 km/h
384 26-10-2019 07:55:00 10.4 C 9.06 g/m*3 10.4 C 0 km/h
385 26-10-2019 08:00:00 10.4 C 9.06 g/m*3 10.4 C 0 km/h
386 26-10-2019 08:05:00 10.3 C 9 g/m*3 10.3 C 0 km/h
387 26-10-2019 08:10:00 10.2 C 8.95 g/m*3 10.2 C 0 km/h
388 26-10-2019 08:15:00 10.1 C 8.89 g/m*3 10.1 C 0 km/h
389 26-10-2019 08:20:00 10.1 C 8.98 g/m*3 10.1 C 0 km/h
390 26-10-2019 08:25:00 10.1 C 8.98 g/m*3 10.1 C 0 km/h
391 26-10-2019 08:30:00 10.1 C 8.98 g/m*3 10.1 C 0 km/h
392 26-10-2019 08:35:00 10.1 C 8.98 g/m*3 10.1 C 0 km/h
393 26-10-2019 08:40:00 10.1 C 8.98 g/m*3 10.1 C 0 km/h
394 26-10-2019 08:45:00 10.1 C 8.98 g/m*3 10.1 C 0 km/h
395 26-10-2019 08:50:00 10.2 C 9.14 g/m*3 10.2 C 0 km/h
396 26-10-2019 08:55:00 10.1 C 8.98 g/m*3 10.1 C 0 km/h
397 26-10-2019 09:00:00 10.1 C 9.08 g/m*3 10.1 C 0 km/h
398 26-10-2019 09:05:00 10.1 C 9.08 g/m*3 10.1 C 0 km/h
399 26-10-2019 09:10:00 10.1 C 9.08 g/m*3 10.1 C 0 km/h
400 26-10-2019 09:15:00 10.2 C 9.14 g/m*3 10.2 C 0 km/h
Sensor: Nr:Datum:Temp:Abs-Feuchte:Windchill:Wind:
Aussen-T/F 401 26-10-2019 09:20:00 10.2 C 9.14 g/m*3 10.2 C 0 km/h
402 26-10-2019 09:25:00 10.3 C 9.19 g/m*3 10.3 C 0 km/h
403 26-10-2019 09:30:00 10.3 C 9.19 g/m*3 10.3 C 0 km/h
404 26-10-2019 09:35:00 10.4 C 9.25 g/m*3 10.4 C 0 km/h
405 26-10-2019 09:40:00 10.4 C 9.25 g/m*3 10.4 C 0 km/h
406 26-10-2019 09:45:00 10.5 C 9.31 g/m*3 10.5 C 0 km/h
407 26-10-2019 09:50:00 10.6 C 9.37 g/m*3 10.6 C 0 km/h
408 26-10-2019 09:55:00 10.7 C 9.43 g/m*3 10.7 C 0 km/h
409 26-10-2019 10:00:00 10.7 C 9.43 g/m*3 10.7 C 0 km/h
410 26-10-2019 10:05:00 10.8 C 9.49 g/m*3 10.8 C 0 km/h
411 26-10-2019 10:10:00 10.9 C 9.55 g/m*3 10.9 C 0 km/h
412 26-10-2019 10:15:00 11 C 9.61 g/m*3 11 C 0 km/h
413 26-10-2019 10:20:00 11.1 C 9.77 g/m*3 11.1 C 0 km/h
414 26-10-2019 10:25:00 11.2 C 9.83 g/m*3 11.2 C 0 km/h
415 26-10-2019 10:30:00 11.3 C 9.89 g/m*3 11.3 C 0 km/h
416 26-10-2019 10:35:00 11.4 C 9.96 g/m*3 11.4 C 0 km/h
417 26-10-2019 10:40:00 11.5 C 10.02 g/m*3 11.5 C 0 km/h
418 26-10-2019 10:45:00 11.7 C 10.15 g/m*3 11.7 C 0 km/h
419 26-10-2019 10:50:00 11.8 C 10.21 g/m*3 11.8 C 0 km/h
420 26-10-2019 10:55:00 11.8 C 10.21 g/m*3 11.8 C 0 km/h
421 26-10-2019 11:00:00 11.9 C 10.27 g/m*3 11.9 C 0 km/h
422 26-10-2019 11:05:00 12 C 10.34 g/m*3 12 C 0 km/h
423 26-10-2019 11:10:00 12.2 C 10.47 g/m*3 12.2 C 0 km/h
424 26-10-2019 11:15:00 12.2 C 10.47 g/m*3 12.2 C 0 km/h
425 26-10-2019 11:20:00 12.3 C 10.53 g/m*3 12.3 C 0 km/h
Sensor: Nr:Datum:Temp:Abs-Feuchte:Windchill:Wind:
Aussen-T/F 426 26-10-2019 11:25:00 12.4 C 10.6 g/m*3 12.4 C 0 km/h
427 26-10-2019 11:30:00 12.6 C 10.73 g/m*3 12.6 C 0 km/h
428 26-10-2019 11:35:00 12.7 C 10.8 g/m*3 12.7 C 0 km/h
429 26-10-2019 11:40:00 12.8 C 10.87 g/m*3 12.8 C 0 km/h
430 26-10-2019 11:45:00 12.8 C 10.87 g/m*3 12.8 C 0 km/h
431 26-10-2019 11:50:00 12.9 C 10.82 g/m*3 12.9 C 0 km/h
432 26-10-2019 11:55:00 12.9 C 10.82 g/m*3 12.9 C 0 km/h
433 26-10-2019 12:00:00 13.1 C 10.95 g/m*3 13.1 C 0 km/h
434 26-10-2019 12:05:00 13.1 C 10.95 g/m*3 13.1 C 0 km/h
435 26-10-2019 12:10:00 13.3 C 11.09 g/m*3 13.3 C 1.6 km/h
436 26-10-2019 12:15:00 13.4 C 11.16 g/m*3 13.4 C 4.8 km/h
437 26-10-2019 12:20:00 13.6 C 11.3 g/m*3 13.6 C 3.2 km/h
438 26-10-2019 12:25:00 13.8 C 11.44 g/m*3 13.8 C 0 km/h
439 26-10-2019 12:30:00 13.9 C 11.39 g/m*3 13.9 C 0 km/h
440 26-10-2019 12:35:00 14.1 C 11.53 g/m*3 14.1 C 0 km/h
441 26-10-2019 12:40:00 14.2 C 11.6 g/m*3 14.2 C 1.6 km/h
442 26-10-2019 12:45:00 14.3 C 11.55 g/m*3 14.3 C 1.6 km/h
443 26-10-2019 12:50:00 14.4 C 11.62 g/m*3 14.4 C 1.6 km/h
444 26-10-2019 12:55:00 14.6 C 11.51 g/m*3 14.6 C 0 km/h
445 26-10-2019 13:00:00 14.7 C 11.58 g/m*3 14.7 C 0 km/h
446 26-10-2019 13:05:00 14.8 C 11.65 g/m*3 14.8 C 0 km/h
447 26-10-2019 13:10:00 14.9 C 11.6 g/m*3 14.9 C 0 km/h
448 26-10-2019 13:15:00 15.1 C 11.74 g/m*3 15.1 C 0 km/h
449 26-10-2019 13:20:00 15.1 C 11.61 g/m*3 15.1 C 0 km/h
450 26-10-2019 13:25:00 15.2 C 11.68 g/m*3 15.2 C 0 km/h
Sensor: Nr:Datum:Temp:Abs-Feuchte:Windchill:Wind:
Aussen-T/F 451 26-10-2019 13:30:00 15.3 C 11.75 g/m*3 15.3 C 0 km/h
452 26-10-2019 13:35:00 15.3 C 11.75 g/m*3 15.3 C 0 km/h
453 26-10-2019 13:40:00 15.3 C 11.62 g/m*3 15.3 C 1.6 km/h
454 26-10-2019 13:45:00 15.3 C 11.49 g/m*3 15.3 C 3.2 km/h
455 26-10-2019 13:50:00 15.5 C 11.63 g/m*3 15.5 C 4.8 km/h
456 26-10-2019 13:55:00 15.7 C 11.77 g/m*3 15.7 C 1.6 km/h
457 26-10-2019 14:00:00 15.8 C 11.71 g/m*3 15.8 C 1.6 km/h
458 26-10-2019 14:05:00 16.1 C 11.93 g/m*3 16.1 C 4.8 km/h
459 26-10-2019 14:10:00 16.3 C 11.65 g/m*3 16.3 C 4.8 km/h
460 26-10-2019 14:15:00 16.5 C 11.94 g/m*3 16.5 C 1.6 km/h
461 26-10-2019 14:20:00 16.6 C 12.01 g/m*3 16.6 C 1.6 km/h
462 26-10-2019 14:25:00 16.7 C 12.22 g/m*3 16.7 C 0 km/h
463 26-10-2019 14:30:00 16.7 C 12.22 g/m*3 16.7 C 0 km/h
464 26-10-2019 14:35:00 16.7 C 12.08 g/m*3 16.7 C 1.6 km/h
465 26-10-2019 14:40:00 16.7 C 11.94 g/m*3 16.7 C 3.2 km/h
466 26-10-2019 14:45:00 16.7 C 11.94 g/m*3 16.7 C 3.2 km/h
467 26-10-2019 14:50:00 16.8 C 12.01 g/m*3 16.8 C 1.6 km/h
468 26-10-2019 14:55:00 16.8 C 12.01 g/m*3 16.8 C 3.2 km/h
469 26-10-2019 15:00:00 16.8 C 11.87 g/m*3 16.8 C 3.2 km/h
470 26-10-2019 15:05:00 16.8 C 12.01 g/m*3 16.8 C 1.6 km/h
471 26-10-2019 15:10:00 16.9 C 12.08 g/m*3 16.9 C 1.6 km/h
472 26-10-2019 15:15:00 16.9 C 12.08 g/m*3 16.9 C 1.6 km/h
473 26-10-2019 15:20:00 16.8 C 12.01 g/m*3 16.8 C 0 km/h
474 26-10-2019 15:25:00 16.8 C 12.15 g/m*3 16.8 C 0 km/h
475 26-10-2019 15:30:00 16.8 C 12.15 g/m*3 16.8 C 0 km/h
Sensor: Nr:Datum:Temp:Abs-Feuchte:Windchill:Wind:
Aussen-T/F 476 26-10-2019 15:35:00 16.8 C 12.15 g/m*3 16.8 C 0 km/h
477 26-10-2019 15:40:00 16.7 C 12.08 g/m*3 16.7 C 0 km/h
478 26-10-2019 15:45:00 16.7 C 12.08 g/m*3 16.7 C 0 km/h
479 26-10-2019 15:50:00 16.7 C 12.22 g/m*3 16.7 C 0 km/h
480 26-10-2019 15:55:00 16.7 C 12.22 g/m*3 16.7 C 0 km/h
481 26-10-2019 16:00:00 16.7 C 12.22 g/m*3 16.7 C 0 km/h
482 26-10-2019 16:05:00 16.7 C 12.22 g/m*3 16.7 C 1.6 km/h
483 26-10-2019 16:10:00 16.6 C 11.87 g/m*3 16.6 C 4.8 km/h
484 26-10-2019 16:15:00 16.7 C 12.22 g/m*3 16.7 C 0 km/h
485 26-10-2019 16:20:00 16.8 C 12.3 g/m*3 16.8 C 0 km/h
486 26-10-2019 16:25:00 16.7 C 12.08 g/m*3 16.7 C 1.6 km/h
487 26-10-2019 16:30:00 16.7 C 12.22 g/m*3 16.7 C 0 km/h
488 26-10-2019 16:35:00 16.6 C 12.15 g/m*3 16.6 C 0 km/h
489 26-10-2019 16:40:00 16.4 C 12 g/m*3 16.4 C 0 km/h
490 26-10-2019 16:45:00 16.3 C 11.93 g/m*3 16.3 C 1.6 km/h
491 26-10-2019 16:50:00 16.2 C 11.86 g/m*3 16.2 C 1.6 km/h
492 26-10-2019 16:55:00 16 C 11.72 g/m*3 16 C 1.6 km/h
493 26-10-2019 17:00:00 15.9 C 11.78 g/m*3 15.9 C 3.2 km/h
494 26-10-2019 17:05:00 15.8 C 11.71 g/m*3 15.8 C 1.6 km/h
495 26-10-2019 17:10:00 15.7 C 11.64 g/m*3 15.7 C 3.2 km/h
496 26-10-2019 17:15:00 15.6 C 11.57 g/m*3 15.6 C 1.6 km/h
497 26-10-2019 17:20:00 15.5 C 11.5 g/m*3 15.5 C 3.2 km/h
498 26-10-2019 17:25:00 15.4 C 11.43 g/m*3 15.4 C 0 km/h
499 26-10-2019 17:30:00 15.3 C 11.36 g/m*3 15.3 C 0 km/h
500 26-10-2019 17:35:00 15.2 C 11.42 g/m*3 15.2 C 1.6 km/h
Sensor: Nr:Datum:Temp:Abs-Feuchte:Windchill:Wind:
Aussen-T/F 501 26-10-2019 17:40:00 15 C 11.28 g/m*3 15 C 0 km/h
502 26-10-2019 17:45:00 14.9 C 11.22 g/m*3 14.9 C 1.6 km/h
503 26-10-2019 17:50:00 14.8 C 11.15 g/m*3 14.8 C 1.6 km/h
504 26-10-2019 17:55:00 14.7 C 11.08 g/m*3 14.7 C 1.6 km/h
505 26-10-2019 18:00:00 14.6 C 11.01 g/m*3 14.6 C 1.6 km/h
506 26-10-2019 18:05:00 14.4 C 10.88 g/m*3 14.4 C 0 km/h
507 26-10-2019 18:10:00 14.3 C 10.81 g/m*3 14.3 C 0 km/h
508 26-10-2019 18:15:00 14.2 C 10.87 g/m*3 14.2 C 0 km/h
509 26-10-2019 18:20:00 14.1 C 10.8 g/m*3 14.1 C 1.6 km/h
510 26-10-2019 18:25:00 14.1 C 10.8 g/m*3 14.1 C 0 km/h
511 26-10-2019 18:30:00 13.9 C 10.67 g/m*3 13.9 C 0 km/h
512 26-10-2019 18:35:00 13.7 C 10.54 g/m*3 13.7 C 0 km/h
513 26-10-2019 18:40:00 13.6 C 10.59 g/m*3 13.6 C 0 km/h
514 26-10-2019 18:45:00 13.5 C 10.53 g/m*3 13.5 C 0 km/h
515 26-10-2019 18:50:00 13.4 C 10.46 g/m*3 13.4 C 1.6 km/h
516 26-10-2019 18:55:00 13.3 C 10.4 g/m*3 13.3 C 1.6 km/h
517 26-10-2019 19:00:00 13.3 C 10.4 g/m*3 13.3 C 1.6 km/h
518 26-10-2019 19:05:00 13.3 C 10.4 g/m*3 13.3 C 0 km/h
519 26-10-2019 19:10:00 13.2 C 10.33 g/m*3 13.2 C 0 km/h
520 26-10-2019 19:15:00 13.2 C 10.33 g/m*3 13.2 C 0 km/h
521 26-10-2019 19:20:00 13.1 C 10.38 g/m*3 13.1 C 0 km/h
522 26-10-2019 19:25:00 13 C 10.32 g/m*3 13 C 0 km/h
523 26-10-2019 19:30:00 12.9 C 10.26 g/m*3 12.9 C 1.6 km/h
524 26-10-2019 19:35:00 12.8 C 10.19 g/m*3 12.8 C 0 km/h
525 26-10-2019 19:40:00 12.8 C 10.3 g/m*3 12.8 C 0 km/h
Sensor: Nr:Datum:Temp:Abs-Feuchte:Windchill:Wind:
Aussen-T/F 526 26-10-2019 19:45:00 12.7 C 10.24 g/m*3 12.7 C 0 km/h
527 26-10-2019 19:50:00 12.7 C 10.24 g/m*3 12.7 C 0 km/h
528 26-10-2019 19:55:00 12.7 C 10.24 g/m*3 12.7 C 0 km/h
529 26-10-2019 20:00:00 12.7 C 10.24 g/m*3 12.7 C 0 km/h
530 26-10-2019 20:05:00 12.7 C 10.24 g/m*3 12.7 C 0 km/h
531 26-10-2019 20:10:00 12.8 C 10.42 g/m*3 12.8 C 1.6 km/h
532 26-10-2019 20:15:00 12.8 C 10.42 g/m*3 12.8 C 1.6 km/h
533 26-10-2019 20:20:00 12.8 C 10.42 g/m*3 12.8 C 0 km/h
534 26-10-2019 20:25:00 12.9 C 10.48 g/m*3 12.9 C 0 km/h
535 26-10-2019 20:30:00 12.9 C 10.48 g/m*3 12.9 C 0 km/h
536 26-10-2019 20:35:00 12.9 C 10.48 g/m*3 12.9 C 0 km/h
537 26-10-2019 20:40:00 12.9 C 10.48 g/m*3 12.9 C 1.6 km/h
538 26-10-2019 20:45:00 13 C 10.55 g/m*3 13 C 0 km/h
539 26-10-2019 20:50:00 13 C 10.43 g/m*3 13 C 0 km/h
540 26-10-2019 20:55:00 13 C 10.43 g/m*3 13 C 0 km/h
541 26-10-2019 21:00:00 13 C 10.43 g/m*3 13 C 0 km/h
542 26-10-2019 21:05:00 12.9 C 10.37 g/m*3 12.9 C 0 km/h
543 26-10-2019 21:10:00 13 C 10.43 g/m*3 13 C 0 km/h
544 26-10-2019 21:15:00 13.1 C 10.5 g/m*3 13.1 C 0 km/h
545 26-10-2019 21:20:00 13.1 C 10.5 g/m*3 13.1 C 0 km/h
546 26-10-2019 21:25:00 13.1 C 10.5 g/m*3 13.1 C 0 km/h
547 26-10-2019 21:30:00 13 C 10.43 g/m*3 13 C 0 km/h
548 26-10-2019 21:35:00 13 C 10.43 g/m*3 13 C 0 km/h
549 26-10-2019 21:40:00 13 C 10.43 g/m*3 13 C 0 km/h
550 26-10-2019 21:45:00 12.9 C 10.37 g/m*3 12.9 C 0 km/h
Sensor: Nr:Datum:Temp:Abs-Feuchte:Windchill:Wind:
Aussen-T/F 551 26-10-2019 21:50:00 12.9 C 10.37 g/m*3 12.9 C 0 km/h
552 26-10-2019 21:55:00 12.9 C 10.48 g/m*3 12.9 C 0 km/h
553 26-10-2019 22:00:00 12.8 C 10.42 g/m*3 12.8 C 0 km/h
554 26-10-2019 22:05:00 12.8 C 10.42 g/m*3 12.8 C 0 km/h
555 26-10-2019 22:10:00 12.7 C 10.35 g/m*3 12.7 C 0 km/h
556 26-10-2019 22:15:00 12.7 C 10.35 g/m*3 12.7 C 0 km/h
557 26-10-2019 22:20:00 12.7 C 10.35 g/m*3 12.7 C 0 km/h
558 26-10-2019 22:25:00 12.7 C 10.35 g/m*3 12.7 C 0 km/h
559 26-10-2019 22:30:00 12.6 C 10.29 g/m*3 12.6 C 0 km/h
560 26-10-2019 22:35:00 12.6 C 10.29 g/m*3 12.6 C 0 km/h
561 26-10-2019 22:40:00 12.6 C 10.29 g/m*3 12.6 C 0 km/h
562 26-10-2019 22:45:00 12.6 C 10.29 g/m*3 12.6 C 0 km/h
563 26-10-2019 22:50:00 12.5 C 10.22 g/m*3 12.5 C 0 km/h
564 26-10-2019 22:55:00 12.4 C 10.16 g/m*3 12.4 C 0 km/h
565 26-10-2019 23:00:00 12.4 C 10.27 g/m*3 12.4 C 0 km/h
566 26-10-2019 23:05:00 12.4 C 10.27 g/m*3 12.4 C 0 km/h
567 26-10-2019 23:10:00 12.4 C 10.27 g/m*3 12.4 C 0 km/h
568 26-10-2019 23:15:00 12.5 C 10.33 g/m*3 12.5 C 0 km/h
569 26-10-2019 23:20:00 12.6 C 10.4 g/m*3 12.6 C 0 km/h
570 26-10-2019 23:25:00 12.6 C 10.4 g/m*3 12.6 C 0 km/h
571 26-10-2019 23:30:00 12.6 C 10.4 g/m*3 12.6 C 0 km/h
572 26-10-2019 23:35:00 12.7 C 10.46 g/m*3 12.7 C 4.8 km/h
573 26-10-2019 23:40:00 12.8 C 10.53 g/m*3 12.8 C 0 km/h
574 26-10-2019 23:45:00 12.8 C 10.53 g/m*3 12.8 C 0 km/h
575 26-10-2019 23:50:00 12.8 C 10.42 g/m*3 12.8 C 0 km/h
Sensor: Nr:Datum:Temp:Abs-Feuchte:Windchill:Wind:
Aussen-T/F 576 26-10-2019 23:55:00 12.9 C 10.48 g/m*3 12.9 C 0 km/h
577 27-10-2019 00:00:00 12.8 C 10.42 g/m*3 12.8 C 1.6 km/h
578 27-10-2019 00:05:00 12.9 C 10.48 g/m*3 12.9 C 1.6 km/h
579 27-10-2019 00:10:00 13 C 10.55 g/m*3 13 C 3.2 km/h
580 27-10-2019 00:15:00 13.1 C 10.5 g/m*3 13.1 C 0 km/h
581 27-10-2019 00:20:00 13.1 C 10.5 g/m*3 13.1 C 0 km/h
582 27-10-2019 00:25:00 13.1 C 10.5 g/m*3 13.1 C 0 km/h
583 27-10-2019 00:30:00 13.2 C 10.56 g/m*3 13.2 C 1.6 km/h
584 27-10-2019 00:35:00 13.7 C 10.42 g/m*3 13.7 C 12.9 km/h
585 27-10-2019 00:40:00 14.1 C 10.68 g/m*3 14.1 C 4.8 km/h
586 27-10-2019 00:45:00 14.2 C 10.75 g/m*3 14.2 C 1.6 km/h
587 27-10-2019 00:50:00 14.1 C 10.56 g/m*3 14.1 C 1.6 km/h
588 27-10-2019 00:55:00 14.2 C 10.5 g/m*3 14.2 C 11.3 km/h
589 27-10-2019 01:00:00 14.2 C 10.62 g/m*3 14.2 C 0 km/h
590 27-10-2019 01:05:00 14.1 C 10.44 g/m*3 14.1 C 0 km/h
591 27-10-2019 01:10:00 14 C 10.49 g/m*3 14 C 1.6 km/h
592 27-10-2019 01:15:00 13.9 C 10.31 g/m*3 13.9 C 1.6 km/h
593 27-10-2019 01:20:00 13.9 C 10.43 g/m*3 13.9 C 1.6 km/h
594 27-10-2019 01:25:00 13.9 C 10.43 g/m*3 13.9 C 0 km/h
595 27-10-2019 01:30:00 13.7 C 10.3 g/m*3 13.7 C 1.6 km/h
596 27-10-2019 01:35:00 13.6 C 10.36 g/m*3 13.6 C 3.2 km/h
597 27-10-2019 01:40:00 13.6 C 10.36 g/m*3 13.6 C 0 km/h
598 27-10-2019 01:45:00 13.4 C 10.35 g/m*3 13.4 C 0 km/h
599 27-10-2019 01:50:00 13.3 C 10.28 g/m*3 13.3 C 0 km/h
600 27-10-2019 01:55:00 13.3 C 10.28 g/m*3 13.3 C 0 km/h
Sensor: Nr:Datum:Temp:Abs-Feuchte:Windchill:Wind:
Aussen-T/F 601 27-10-2019 02:00:00 13.2 C 10.22 g/m*3 13.2 C 3.2 km/h
602 27-10-2019 02:05:00 13.3 C 10.28 g/m*3 13.3 C 0 km/h
603 27-10-2019 02:10:00 13.3 C 10.28 g/m*3 13.3 C 3.2 km/h
604 27-10-2019 02:15:00 13.2 C 10.22 g/m*3 13.2 C 1.6 km/h
605 27-10-2019 02:20:00 13.2 C 10.22 g/m*3 13.2 C 0 km/h
606 27-10-2019 02:25:00 13 C 10.09 g/m*3 13 C 0 km/h
607 27-10-2019 02:30:00 12.9 C 10.14 g/m*3 12.9 C 0 km/h
608 27-10-2019 02:35:00 12.8 C 10.08 g/m*3 12.8 C 1.6 km/h
609 27-10-2019 02:40:00 12.8 C 10.08 g/m*3 12.8 C 0 km/h
610 27-10-2019 02:45:00 12.7 C 10.02 g/m*3 12.7 C 3.2 km/h
611 27-10-2019 02:50:00 12.7 C 10.02 g/m*3 12.7 C 6.4 km/h
612 27-10-2019 02:55:00 12.7 C 10.02 g/m*3 12.7 C 4.8 km/h
613 27-10-2019 04:00:00 12.7 C 10.13 g/m*3 12.7 C 3.2 km/h
614 27-10-2019 04:05:00 11.9 C 9.85 g/m*3 11.9 C 0 km/h
615 27-10-2019 04:05:00 12.6 C 10.07 g/m*3 12.6 C 3.2 km/h
616 27-10-2019 04:10:00 12.6 C 10.07 g/m*3 12.6 C 1.6 km/h
617 27-10-2019 04:10:00 11.9 C 9.85 g/m*3 11.9 C 1.6 km/h
618 27-10-2019 04:15:00 12.4 C 9.94 g/m*3 12.4 C 3.2 km/h
619 27-10-2019 04:15:00 11.9 C 9.85 g/m*3 11.9 C 0 km/h
620 27-10-2019 04:20:00 12.4 C 10.05 g/m*3 12.4 C 1.6 km/h
621 27-10-2019 04:20:00 11.9 C 9.85 g/m*3 11.9 C 0 km/h
622 27-10-2019 04:25:00 12.4 C 10.05 g/m*3 12.4 C 0 km/h
623 27-10-2019 04:25:00 11.9 C 9.85 g/m*3 11.9 C 0 km/h
624 27-10-2019 04:30:00 11.9 C 9.85 g/m*3 11.9 C 0 km/h
625 27-10-2019 04:30:00 12.3 C 9.99 g/m*3 12.3 C 0 km/h
Sensor: Nr:Datum:Temp:Abs-Feuchte:Windchill:Wind:
Aussen-T/F 626 27-10-2019 04:35:00 11.9 C 9.85 g/m*3 11.9 C 1.6 km/h
627 27-10-2019 04:35:00 12.2 C 9.93 g/m*3 12.2 C 0 km/h
628 27-10-2019 04:40:00 12.1 C 9.97 g/m*3 12.1 C 0 km/h
629 27-10-2019 04:40:00 12.2 C 9.82 g/m*3 12.2 C 0 km/h
630 27-10-2019 04:45:00 12.1 C 9.97 g/m*3 12.1 C 1.6 km/h
631 27-10-2019 04:45:00 12.1 C 9.87 g/m*3 12.1 C 0 km/h
632 27-10-2019 04:50:00 11.9 C 9.74 g/m*3 11.9 C 0 km/h
633 27-10-2019 04:50:00 12.3 C 10.1 g/m*3 12.3 C 4.8 km/h
634 27-10-2019 04:55:00 11.9 C 9.74 g/m*3 11.9 C 0 km/h
635 27-10-2019 04:55:00 12.5 C 10.11 g/m*3 12.5 C 1.6 km/h
636 27-10-2019 05:00:00 11.9 C 9.85 g/m*3 11.9 C 0 km/h
637 27-10-2019 05:00:00 12.6 C 10.07 g/m*3 12.6 C 0 km/h
638 27-10-2019 05:05:00 12.7 C 10.13 g/m*3 12.7 C 0 km/h
639 27-10-2019 05:10:00 12.7 C 10.13 g/m*3 12.7 C 0 km/h
640 27-10-2019 05:15:00 12.8 C 10.19 g/m*3 12.8 C 0 km/h
641 27-10-2019 05:20:00 12.8 C 10.19 g/m*3 12.8 C 1.6 km/h
642 27-10-2019 05:25:00 12.9 C 10.37 g/m*3 12.9 C 0 km/h
643 27-10-2019 05:30:00 13 C 10.32 g/m*3 13 C 1.6 km/h
644 27-10-2019 05:35:00 13.1 C 10.38 g/m*3 13.1 C 0 km/h
645 27-10-2019 05:40:00 13.1 C 10.38 g/m*3 13.1 C 4.8 km/h
646 27-10-2019 05:45:00 13.2 C 10.45 g/m*3 13.2 C 0 km/h
647 27-10-2019 05:50:00 13.3 C 10.51 g/m*3 13.3 C 3.2 km/h
648 27-10-2019 05:55:00 13.3 C 10.51 g/m*3 13.3 C 1.6 km/h
649 27-10-2019 06:00:00 13.4 C 10.35 g/m*3 13.4 C 1.6 km/h
650 27-10-2019 06:05:00 13.7 C 10.42 g/m*3 13.7 C 14.5 km/h
Sensor: Nr:Datum:Temp:Abs-Feuchte:Windchill:Wind:
Aussen-T/F 651 27-10-2019 06:10:00 13.9 C 10.43 g/m*3 13.9 C 14.5 km/h
652 27-10-2019 06:15:00 14.2 C 10.62 g/m*3 14.2 C 1.6 km/h
653 27-10-2019 06:20:00 14.2 C 10.5 g/m*3 14.2 C 8.1 km/h
654 27-10-2019 06:25:00 14.3 C 10.44 g/m*3 14.3 C 11.3 km/h
655 27-10-2019 06:30:00 14.3 C 10.44 g/m*3 14.3 C 6.4 km/h
656 27-10-2019 06:35:00 14.3 C 10.44 g/m*3 14.3 C 6.4 km/h
657 27-10-2019 06:40:00 14.3 C 10.44 g/m*3 14.3 C 4.8 km/h
658 27-10-2019 06:45:00 14.3 C 10.44 g/m*3 14.3 C 1.6 km/h
659 27-10-2019 06:50:00 14.3 C 10.44 g/m*3 14.3 C 3.2 km/h
660 27-10-2019 06:55:00 14.3 C 10.44 g/m*3 14.3 C 11.3 km/h
661 27-10-2019 07:00:00 14.4 C 10.51 g/m*3 14.4 C 9.7 km/h
662 27-10-2019 07:05:00 14.4 C 10.51 g/m*3 14.4 C 8.1 km/h
663 27-10-2019 07:10:00 14.5 C 10.57 g/m*3 14.5 C 11.3 km/h
664 27-10-2019 07:15:00 14.5 C 10.57 g/m*3 14.5 C 4.8 km/h
665 27-10-2019 07:20:00 14.5 C 10.7 g/m*3 14.5 C 6.4 km/h
666 27-10-2019 07:25:00 14.4 C 10.75 g/m*3 14.4 C 4.8 km/h
667 27-10-2019 07:30:00 14.3 C 10.81 g/m*3 14.3 C 1.6 km/h
668 27-10-2019 07:35:00 14.2 C 10.75 g/m*3 14.2 C 9.7 km/h
669 27-10-2019 07:40:00 14.1 C 10.8 g/m*3 14.1 C 11.3 km/h
670 27-10-2019 07:45:00 13.9 C 10.79 g/m*3 13.9 C 9.7 km/h
671 27-10-2019 07:50:00 13.6 C 10.59 g/m*3 13.6 C 19.3 km/h
672 27-10-2019 07:55:00 13.2 C 10.33 g/m*3 13.2 C 19.3 km/h
673 27-10-2019 08:00:00 12.8 C 10.08 g/m*3 12.8 C 14.5 km/h
674 27-10-2019 08:05:00 12.6 C 10.07 g/m*3 12.6 C 9.7 km/h
675 27-10-2019 08:10:00 12.3 C 9.88 g/m*3 12.3 C 12.9 km/h
Sensor: Nr:Datum:Temp:Abs-Feuchte:Windchill:Wind:
Aussen-T/F 676 27-10-2019 08:15:00 12.2 C 9.82 g/m*3 12.2 C 9.7 km/h
677 27-10-2019 08:20:00 12.1 C 9.87 g/m*3 12.1 C 8.1 km/h
678 27-10-2019 08:25:00 11.9 C 9.74 g/m*3 11.9 C 11.3 km/h
679 27-10-2019 08:30:00 11.8 C 9.68 g/m*3 11.8 C 12.9 km/h
680 27-10-2019 08:35:00 11.7 C 9.62 g/m*3 11.7 C 3.2 km/h
681 27-10-2019 08:40:00 11.7 C 9.73 g/m*3 11.7 C 12.9 km/h
682 27-10-2019 08:45:00 11.6 C 9.67 g/m*3 11.6 C 14.5 km/h
683 27-10-2019 08:50:00 11.6 C 9.56 g/m*3 11.6 C 11.3 km/h
684 27-10-2019 08:55:00 11.4 C 9.55 g/m*3 11.4 C 9.7 km/h
685 27-10-2019 09:00:00 11.4 C 9.55 g/m*3 11.4 C 8.1 km/h
686 27-10-2019 09:05:00 11.3 C 9.49 g/m*3 11.3 C 14.5 km/h
687 27-10-2019 09:10:00 11.1 C 9.37 g/m*3 11.1 C 14.5 km/h
688 27-10-2019 09:15:00 10.8 C 9.09 g/m*3 8.96 C 14.5 km/h
689 27-10-2019 09:20:00 10.6 C 8.98 g/m*3 8.92 C 12.9 km/h
690 27-10-2019 09:25:00 10.3 C 8.91 g/m*3 9.04 C 9.7 km/h
691 27-10-2019 09:30:00 10.1 C 8.7 g/m*3 8.31 C 12.9 km/h
692 27-10-2019 09:35:00 10.1 C 8.79 g/m*3 9.48 C 6.4 km/h
693 27-10-2019 09:40:00 10.1 C 8.79 g/m*3 10.1 C 4.8 km/h
694 27-10-2019 09:45:00 9.9 C 8.78 g/m*3 8.56 C 9.7 km/h
695 27-10-2019 09:50:00 9.8 C 8.63 g/m*3 9.8 C 4.8 km/h
696 27-10-2019 09:55:00 9.6 C 8.52 g/m*3 8.91 C 6.4 km/h
697 27-10-2019 10:00:00 9.4 C 8.32 g/m*3 9.4 C 4.8 km/h
698 27-10-2019 10:05:00 9.4 C 8.41 g/m*3 9.4 C 3.2 km/h
699 27-10-2019 10:10:00 9.4 C 8.41 g/m*3 9.4 C 4.8 km/h
700 27-10-2019 10:15:00 9.5 C 8.56 g/m*3 9.5 C 0 km/h
Sensor: Nr:Datum:Temp:Abs-Feuchte:Windchill:Wind:
Aussen-T/F 701 27-10-2019 10:20:00 9.6 C 8.61 g/m*3 9.6 C 1.6 km/h
702 27-10-2019 10:25:00 9.6 C 8.61 g/m*3 9.6 C 0 km/h
703 27-10-2019 10:30:00 9.4 C 8.5 g/m*3 9.4 C 4.8 km/h
704 27-10-2019 10:35:00 9.4 C 8.5 g/m*3 9.4 C 0 km/h
705 27-10-2019 10:40:00 9.3 C 8.36 g/m*3 9.3 C 0 km/h
706 27-10-2019 10:45:00 9.3 C 8.45 g/m*3 9.3 C 0 km/h
707 27-10-2019 10:50:00 9.4 C 8.5 g/m*3 9.4 C 0 km/h
708 27-10-2019 10:55:00 9.6 C 8.7 g/m*3 9.6 C 0 km/h
709 27-10-2019 11:00:00 9.7 C 8.76 g/m*3 9.7 C 0 km/h
710 27-10-2019 11:05:00 9.7 C 8.76 g/m*3 9.7 C 0 km/h
711 27-10-2019 11:10:00 9.8 C 8.81 g/m*3 9.8 C 0 km/h
712 27-10-2019 11:15:00 9.7 C 8.67 g/m*3 9.7 C 0 km/h
713 27-10-2019 11:20:00 9.7 C 8.67 g/m*3 9.7 C 0 km/h
714 27-10-2019 11:25:00 9.7 C 8.76 g/m*3 9.7 C 0 km/h
715 27-10-2019 11:30:00 9.8 C 8.81 g/m*3 9.8 C 0 km/h
716 27-10-2019 11:35:00 9.8 C 8.81 g/m*3 9.8 C 4.8 km/h
717 27-10-2019 11:40:00 9.8 C 8.72 g/m*3 9.8 C 3.2 km/h
718 27-10-2019 11:45:00 9.8 C 8.72 g/m*3 9.8 C 0 km/h
719 27-10-2019 11:50:00 9.8 C 8.72 g/m*3 9.8 C 1.6 km/h
720 27-10-2019 11:55:00 9.8 C 8.72 g/m*3 9.8 C 1.6 km/h
721 27-10-2019 12:00:00 9.9 C 8.78 g/m*3 9.9 C 1.6 km/h
722 27-10-2019 12:05:00 10 C 8.93 g/m*3 10 C 0 km/h
723 27-10-2019 12:10:00 10.1 C 8.98 g/m*3 10.1 C 0 km/h
724 27-10-2019 12:15:00 10.1 C 8.98 g/m*3 10.1 C 0 km/h
725 27-10-2019 12:20:00 10 C 8.83 g/m*3 10 C 0 km/h
Sensor: Nr:Datum:Temp:Abs-Feuchte:Windchill:Wind:
Aussen-T/F 726 27-10-2019 12:25:00 10 C 8.83 g/m*3 10 C 0 km/h
727 27-10-2019 12:30:00 10.1 C 8.98 g/m*3 10.1 C 0 km/h
728 27-10-2019 12:35:00 10.1 C 8.98 g/m*3 10.1 C 0 km/h
729 27-10-2019 12:40:00 10 C 8.83 g/m*3 10 C 0 km/h
730 27-10-2019 12:45:00 9.9 C 8.78 g/m*3 9.9 C 3.2 km/h
731 27-10-2019 12:50:00 9.9 C 8.78 g/m*3 9.9 C 0 km/h
732 27-10-2019 12:55:00 9.9 C 8.78 g/m*3 9.9 C 0 km/h
733 27-10-2019 13:00:00 9.9 C 8.87 g/m*3 9.9 C 0 km/h
734 27-10-2019 13:05:00 9.9 C 8.87 g/m*3 9.9 C 0 km/h
735 27-10-2019 13:10:00 9.9 C 8.87 g/m*3 9.9 C 0 km/h
736 27-10-2019 13:15:00 9.9 C 8.78 g/m*3 9.9 C 0 km/h
737 27-10-2019 13:20:00 9.9 C 8.78 g/m*3 9.9 C 0 km/h
738 27-10-2019 13:25:00 9.9 C 8.87 g/m*3 9.9 C 0 km/h
739 27-10-2019 13:30:00 9.9 C 8.87 g/m*3 9.9 C 0 km/h
740 27-10-2019 13:35:00 9.9 C 8.87 g/m*3 9.9 C 0 km/h
741 27-10-2019 13:40:00 9.9 C 8.87 g/m*3 9.9 C 0 km/h
742 27-10-2019 13:45:00 9.9 C 8.87 g/m*3 9.9 C 0 km/h
743 27-10-2019 13:50:00 9.9 C 8.78 g/m*3 9.9 C 0 km/h
744 27-10-2019 13:55:00 9.9 C 8.78 g/m*3 9.9 C 0 km/h
745 27-10-2019 14:00:00 9.8 C 8.72 g/m*3 9.8 C 0 km/h
746 27-10-2019 14:05:00 9.8 C 8.72 g/m*3 9.8 C 1.6 km/h
747 27-10-2019 14:10:00 9.7 C 8.67 g/m*3 9.7 C 1.6 km/h
748 27-10-2019 14:15:00 9.7 C 8.67 g/m*3 9.7 C 1.6 km/h
749 27-10-2019 14:20:00 9.6 C 8.61 g/m*3 9.6 C 0 km/h
750 27-10-2019 14:25:00 9.4 C 8.5 g/m*3 9.4 C 0 km/h
Sensor: Nr:Datum:Temp:Abs-Feuchte:Windchill:Wind:
Aussen-T/F 751 27-10-2019 14:30:00 9.4 C 8.5 g/m*3 9.4 C 0 km/h
752 27-10-2019 14:35:00 9.4 C 8.5 g/m*3 9.4 C 0 km/h
753 27-10-2019 14:40:00 9.4 C 8.5 g/m*3 9.4 C 0 km/h
754 27-10-2019 14:45:00 9.4 C 8.59 g/m*3 9.4 C 0 km/h
755 27-10-2019 14:50:00 9.4 C 8.59 g/m*3 9.4 C 0 km/h
756 27-10-2019 14:55:00 9.4 C 8.59 g/m*3 9.4 C 0 km/h
757 27-10-2019 15:00:00 9.4 C 8.59 g/m*3 9.4 C 0 km/h
758 27-10-2019 15:05:00 9.4 C 8.59 g/m*3 9.4 C 0 km/h
759 27-10-2019 15:10:00 9.5 C 8.65 g/m*3 9.5 C 0 km/h
760 27-10-2019 15:15:00 9.5 C 8.65 g/m*3 9.5 C 0 km/h
761 27-10-2019 15:20:00 9.5 C 8.65 g/m*3 9.5 C 0 km/h
762 27-10-2019 15:25:00 9.5 C 8.65 g/m*3 9.5 C 0 km/h
763 27-10-2019 15:30:00 9.4 C 8.59 g/m*3 9.4 C 0 km/h
764 27-10-2019 15:35:00 9.4 C 8.59 g/m*3 9.4 C 0 km/h
765 27-10-2019 15:40:00 9.4 C 8.59 g/m*3 9.4 C 0 km/h
766 27-10-2019 15:45:00 9.4 C 8.59 g/m*3 9.4 C 0 km/h
767 27-10-2019 15:50:00 9.4 C 8.59 g/m*3 9.4 C 0 km/h
768 27-10-2019 15:55:00 9.4 C 8.59 g/m*3 9.4 C 0 km/h
769 27-10-2019 16:00:00 9.4 C 8.59 g/m*3 9.4 C 0 km/h
770 27-10-2019 16:05:00 9.4 C 8.59 g/m*3 9.4 C 0 km/h
771 27-10-2019 16:10:00 9.3 C 8.54 g/m*3 9.3 C 0 km/h
772 27-10-2019 16:15:00 9.3 C 8.54 g/m*3 9.3 C 0 km/h
773 27-10-2019 16:20:00 9.3 C 8.54 g/m*3 9.3 C 0 km/h
774 27-10-2019 16:25:00 9.2 C 8.48 g/m*3 9.2 C 0 km/h
775 27-10-2019 16:30:00 9.2 C 8.48 g/m*3 9.2 C 0 km/h
Sensor: Nr:Datum:Temp:Abs-Feuchte:Windchill:Wind:
Aussen-T/F 776 27-10-2019 16:35:00 9.1 C 8.43 g/m*3 9.1 C 0 km/h
777 27-10-2019 16:40:00 9.1 C 8.43 g/m*3 9.1 C 0 km/h
778 27-10-2019 16:45:00 9 C 8.38 g/m*3 9 C 0 km/h
779 27-10-2019 16:50:00 8.9 C 8.32 g/m*3 8.9 C 0 km/h
780 27-10-2019 16:55:00 8.8 C 8.27 g/m*3 8.8 C 0 km/h
781 27-10-2019 17:00:00 8.8 C 8.27 g/m*3 8.8 C 0 km/h
782 27-10-2019 17:05:00 8.7 C 8.22 g/m*3 8.7 C 0 km/h
783 27-10-2019 17:10:00 8.7 C 8.22 g/m*3 8.7 C 0 km/h
784 27-10-2019 17:15:00 8.6 C 8.16 g/m*3 8.6 C 0 km/h
785 27-10-2019 17:20:00 8.6 C 8.16 g/m*3 8.6 C 0 km/h
786 27-10-2019 17:25:00 8.6 C 8.16 g/m*3 8.6 C 0 km/h
787 27-10-2019 17:30:00 8.5 C 8.11 g/m*3 8.5 C 0 km/h
788 27-10-2019 17:35:00 8.5 C 8.11 g/m*3 8.5 C 0 km/h
789 27-10-2019 17:40:00 8.4 C 8.14 g/m*3 8.4 C 0 km/h
790 27-10-2019 17:45:00 8.4 C 8.14 g/m*3 8.4 C 0 km/h
791 27-10-2019 17:50:00 8.4 C 8.14 g/m*3 8.4 C 0 km/h
792 27-10-2019 17:55:00 8.4 C 8.14 g/m*3 8.4 C 0 km/h
793 27-10-2019 18:00:00 8.4 C 8.14 g/m*3 8.4 C 0 km/h
794 27-10-2019 18:05:00 8.4 C 8.14 g/m*3 8.4 C 0 km/h
795 27-10-2019 18:10:00 8.4 C 8.14 g/m*3 8.4 C 0 km/h
796 27-10-2019 18:15:00 8.4 C 8.14 g/m*3 8.4 C 0 km/h
797 27-10-2019 18:20:00 8.4 C 8.14 g/m*3 8.4 C 0 km/h
798 27-10-2019 18:25:00 8.4 C 8.14 g/m*3 8.4 C 0 km/h
799 27-10-2019 18:30:00 8.3 C 8.09 g/m*3 8.3 C 0 km/h
800 27-10-2019 18:35:00 8.3 C 8.09 g/m*3 8.3 C 0 km/h
Sensor: Nr:Datum:Temp:Abs-Feuchte:Windchill:Wind:
Aussen-T/F 801 27-10-2019 18:40:00 8.3 C 8.09 g/m*3 8.3 C 0 km/h
802 27-10-2019 18:45:00 8.3 C 8.09 g/m*3 8.3 C 0 km/h
803 27-10-2019 18:50:00 8.3 C 8.09 g/m*3 8.3 C 0 km/h
804 27-10-2019 18:55:00 8.3 C 8.09 g/m*3 8.3 C 0 km/h
805 27-10-2019 19:00:00 8.3 C 8.09 g/m*3 8.3 C 0 km/h
806 27-10-2019 19:05:00 8.3 C 8.09 g/m*3 8.3 C 0 km/h
807 27-10-2019 19:10:00 8.3 C 8.09 g/m*3 8.3 C 0 km/h
808 27-10-2019 19:15:00 8.3 C 8.09 g/m*3 8.3 C 0 km/h
809 27-10-2019 19:20:00 8.3 C 8.09 g/m*3 8.3 C 0 km/h
810 27-10-2019 19:25:00 8.3 C 8.09 g/m*3 8.3 C 0 km/h
811 27-10-2019 19:30:00 8.3 C 8.09 g/m*3 8.3 C 0 km/h
812 27-10-2019 19:35:00 8.3 C 8.09 g/m*3 8.3 C 0 km/h
813 27-10-2019 19:40:00 8.3 C 8.09 g/m*3 8.3 C 0 km/h
814 27-10-2019 19:45:00 8.3 C 8.09 g/m*3 8.3 C 0 km/h
815 27-10-2019 19:50:00 8.2 C 8.04 g/m*3 8.2 C 0 km/h
816 27-10-2019 19:55:00 8.1 C 7.99 g/m*3 8.1 C 0 km/h
817 27-10-2019 20:00:00 8.1 C 7.99 g/m*3 8.1 C 0 km/h
818 27-10-2019 20:05:00 7.9 C 7.89 g/m*3 7.9 C 0 km/h
819 27-10-2019 20:10:00 7.8 C 7.83 g/m*3 7.8 C 0 km/h
820 27-10-2019 20:15:00 7.7 C 7.78 g/m*3 7.7 C 0 km/h
821 27-10-2019 20:20:00 7.6 C 7.73 g/m*3 7.6 C 0 km/h
822 27-10-2019 20:25:00 7.5 C 7.68 g/m*3 7.5 C 0 km/h
823 27-10-2019 20:30:00 7.4 C 7.63 g/m*3 7.4 C 0 km/h
824 27-10-2019 20:35:00 7.3 C 7.58 g/m*3 7.3 C 0 km/h
825 27-10-2019 20:40:00 7.3 C 7.58 g/m*3 7.3 C 0 km/h
Sensor: Nr:Datum:Temp:Abs-Feuchte:Windchill:Wind:
Aussen-T/F 826 27-10-2019 20:45:00 7.2 C 7.54 g/m*3 7.2 C 0 km/h
827 27-10-2019 20:50:00 7.2 C 7.54 g/m*3 7.2 C 0 km/h
828 27-10-2019 20:55:00 7.1 C 7.49 g/m*3 7.1 C 0 km/h
829 27-10-2019 21:00:00 7.1 C 7.49 g/m*3 7.1 C 0 km/h
830 27-10-2019 21:05:00 7.1 C 7.49 g/m*3 7.1 C 0 km/h
831 27-10-2019 21:10:00 7.1 C 7.49 g/m*3 7.1 C 0 km/h
832 27-10-2019 21:15:00 7.1 C 7.49 g/m*3 7.1 C 0 km/h
833 27-10-2019 21:20:00 7 C 7.44 g/m*3 7 C 1.6 km/h
834 27-10-2019 21:25:00 7 C 7.44 g/m*3 7 C 1.6 km/h
835 27-10-2019 21:30:00 6.9 C 7.39 g/m*3 6.9 C 0 km/h
836 27-10-2019 21:35:00 6.9 C 7.39 g/m*3 6.9 C 0 km/h
837 27-10-2019 21:40:00 6.8 C 7.34 g/m*3 6.8 C 0 km/h
838 27-10-2019 21:45:00 6.7 C 7.29 g/m*3 6.7 C 1.6 km/h
839 27-10-2019 21:50:00 6.7 C 7.29 g/m*3 6.7 C 0 km/h
840 27-10-2019 21:55:00 6.6 C 7.25 g/m*3 6.6 C 0 km/h
841 27-10-2019 22:00:00 6.5 C 7.2 g/m*3 6.5 C 0 km/h
842 27-10-2019 22:05:00 6.4 C 7.15 g/m*3 6.4 C 0 km/h
843 27-10-2019 22:10:00 6.3 C 7.11 g/m*3 6.3 C 0 km/h
844 27-10-2019 22:15:00 6.1 C 7.01 g/m*3 6.1 C 0 km/h
845 27-10-2019 22:20:00 6 C 6.97 g/m*3 6 C 0 km/h
846 27-10-2019 22:25:00 5.9 C 6.92 g/m*3 5.9 C 0 km/h
847 27-10-2019 22:30:00 5.8 C 6.88 g/m*3 5.8 C 0 km/h
848 27-10-2019 22:35:00 5.8 C 6.88 g/m*3 5.8 C 0 km/h
849 27-10-2019 22:40:00 5.7 C 6.83 g/m*3 5.7 C 0 km/h
850 27-10-2019 22:45:00 5.6 C 6.79 g/m*3 5.6 C 0 km/h
Sensor: Nr:Datum:Temp:Abs-Feuchte:Windchill:Wind:
Aussen-T/F 851 27-10-2019 22:50:00 5.6 C 6.79 g/m*3 5.6 C 0 km/h
852 27-10-2019 22:55:00 5.4 C 6.7 g/m*3 5.4 C 0 km/h
853 27-10-2019 23:00:00 5.3 C 6.65 g/m*3 5.3 C 0 km/h
854 27-10-2019 23:05:00 5.3 C 6.65 g/m*3 5.3 C 0 km/h
855 27-10-2019 23:10:00 5.2 C 6.61 g/m*3 5.2 C 0 km/h
856 27-10-2019 23:15:00 5.2 C 6.61 g/m*3 5.2 C 0 km/h
857 27-10-2019 23:20:00 5.1 C 6.57 g/m*3 5.1 C 0 km/h
858 27-10-2019 23:25:00 5 C 6.52 g/m*3 5 C 0 km/h
859 27-10-2019 23:30:00 5 C 6.52 g/m*3 5 C 0 km/h
860 27-10-2019 23:35:00 4.9 C 6.48 g/m*3 4.9 C 3.2 km/h
861 27-10-2019 23:40:00 5.1 C 6.63 g/m*3 5.1 C 0 km/h
862 27-10-2019 23:45:00 5.1 C 6.63 g/m*3 5.1 C 0 km/h
863 27-10-2019 23:50:00 5.1 C 6.63 g/m*3 5.1 C 0 km/h
864 27-10-2019 23:55:00 5.2 C 6.68 g/m*3 5.2 C 0 km/h

Legende:
   Min
   Max


Maximal/Minimal-Werte vom 26.03.2019 - 28.04.2019

Sensor Min Max Avg
Temp
(Aussen-T/F)
0.3 °C
14-04-2019  00:50:00
26.6 °C
24-04-2019  17:05:00
10.45 °C

Die Daten stammen von einer Davis Vantage Pro 2 Wetter-Station und werden unter Linux mit der Software wview2wettercgi und aufbereitet. Alle Angaben erfolgen ohne Gewähr für ihre Vollständigkeit oder Richtigkeit.
Kontakt: Rainer Krienke krienke@uni-koblenz.de . Meine Webseiten an der Uni Koblenz oder privat.
Version: $Revision: 0.78 $